Time;durP1;ratioP1;P1;durP2;ratioP2;P2;SDS_P1;SDS_P2;PMS_P1;PMS_P2;Temp;Humidity;BMP_temperature;BMP_pressure;BME280_temperature;BME280_humidity;BME280_pressure;Samples;Min_cycle;Max_cycle;Signal;HPM_P1;HPM_P2
2023/10/03 00:00:27;;;;;;;;;;;;;;;17.32;39.83;100209.69;5073941;28;19913;-64
2023/10/03 00:02:55;;;;;;;;;;;;;;;17.34;39.79;100213.78;5055718;28;20258;-64
2023/10/03 00:05:22;;;;;;;;;;;;;;;17.29;39.92;100208.31;5073935;28;19966;-64
2023/10/03 00:07:51;;;;;;;;;;;;;;;17.32;39.67;100204.25;5073641;28;19970;-63
2023/10/03 00:10:17;;;;;;;;;;;;;;;17.31;39.25;100202.59;5073596;28;20423;-64
2023/10/03 00:12:43;;;;;;;;;;;;;;;17.28;39.30;100200.41;5073640;28;19913;-64
2023/10/03 00:15:08;;;;;;;;;;;;;;;17.30;39.40;100196.34;5073595;28;19912;-64
2023/10/03 00:17:34;;;;;;;;;;;;;;;17.33;39.59;100193.16;5090903;28;20254;-63
2023/10/03 00:20:00;;;;;;;;;;;;;;;17.39;39.56;100197.59;5093103;28;19912;-63
2023/10/03 00:22:25;;;;;;;;;;;;;;;17.34;39.72;100202.94;5093910;28;20061;-63
2023/10/03 00:24:51;;;;;;;;;;;;;;;17.35;39.41;100199.16;5078144;28;19928;-63
2023/10/03 00:27:16;;;;;;;;;;;;;;;17.37;39.62;100207.06;5073701;28;19917;-63
2023/10/03 00:29:42;;;;;;;;;;;;;;;17.38;39.30;100203.28;5073868;28;19939;-63
2023/10/03 00:32:08;;;;;;;;;;;;;;;17.38;39.40;100201.41;5073487;28;19935;-64
2023/10/03 00:34:36;;;;;;;;;;;;;;;17.37;39.49;100207.06;5073480;28;19917;-64
2023/10/03 00:37:02;;;;;;;;;;;;;;;17.36;39.31;100206.22;5073463;28;20011;-63
2023/10/03 00:39:27;;;;;;;;;;;;;;;17.33;39.44;100206.75;5073465;28;19951;-64
2023/10/03 00:41:53;;;;;;;;;;;;;;;17.32;39.49;100202.38;5073570;28;19912;-64
2023/10/03 00:44:19;;;;;;;;;;;;;;;17.31;39.46;100197.19;5073456;28;19916;-64
2023/10/03 00:46:45;;;;;;;;;;;;;;;17.33;39.52;100195.06;5073373;28;19962;-64
2023/10/03 00:49:14;;;;;;;;;;;;;;;17.33;39.63;100185.03;5073513;28;20320;-64
2023/10/03 00:51:40;;;;;;;;;;;;;;;17.26;39.72;100184.34;5073487;28;19920;-64
2023/10/03 00:54:06;;;;;;;;;;;;;;;17.23;39.59;100171.25;5072642;28;19966;-64
2023/10/03 00:56:31;;;;;;;;;;;;;;;17.24;39.61;100174.81;5072910;28;19991;-64
2023/10/03 00:58:57;;;;;;;;;;;;;;;17.17;40.11;100173.06;5072992;28;19931;-64
2023/10/03 01:01:22;;;;;;;;;;;;;;;17.17;39.52;100164.91;5073119;28;20365;-64
2023/10/03 01:03:48;;;;;;;;;;;;;;;17.17;39.68;100164.09;5073374;28;20402;-64
2023/10/03 01:06:13;;;;;;;;;;;;;;;17.18;39.91;100155.72;5073265;28;19920;-64
2023/10/03 01:08:42;;;;;;;;;;;;;;;17.18;39.97;100158.44;5073277;28;19928;-64
2023/10/03 01:11:13;;;;;;;;;;;;;;;17.18;39.88;100158.44;5073006;28;19916;-64
2023/10/03 01:13:39;;;;;;;;;;;;;;;17.19;40.27;100159.25;5073088;28;19935;-63
2023/10/03 01:16:05;;;;;;;;;;;;;;;17.16;39.96;100152.44;5078424;28;19919;-64
2023/10/03 01:18:31;;;;;;;;;;;;;;;17.22;39.85;100150.63;5093542;28;20011;-63
2023/10/03 01:21:05;;;;;;;;;;;;;;;17.24;39.76;100147.69;5093219;28;19969;-63
2023/10/03 01:23:39;;;;;;;;;;;;;;;17.21;39.84;100136.22;5088982;28;19916;-63
2023/10/03 01:26:05;;;;;;;;;;;;;;;17.22;39.81;100140.59;5072934;28;19919;-63
2023/10/03 01:28:30;;;;;;;;;;;;;;;17.21;39.82;100127.25;5073135;28;19917;-63
2023/10/03 01:30:55;;;;;;;;;;;;;;;17.17;40.14;100124.22;5074080;28;20000;-63
2023/10/03 01:33:26;;;;;;;;;;;;;;;17.14;39.97;100130.16;5076751;28;19912;-64
2023/10/03 01:35:55;;;;;;;;;;;;;;;17.20;39.89;100128.34;5076683;28;19981;-64
2023/10/03 01:38:21;;;;;;;;;;;;;;;17.18;39.63;100123.16;5076635;28;20315;-64
2023/10/03 01:40:51;;;;;;;;;;;;;;;17.16;39.61;100122.59;5058574;28;19913;-63
2023/10/03 01:43:16;;;;;;;;;;;;;;;17.16;39.63;100114.44;5078999;28;20381;-64
2023/10/03 01:45:42;;;;;;;;;;;;;;;17.14;39.74;100116.59;5095899;28;20000;-64
2023/10/03 01:48:07;;;;;;;;;;;;;;;17.11;39.58;100122.50;5076217;28;20392;-64
2023/10/03 01:50:34;;;;;;;;;;;;;;;17.07;39.94;100110.50;5076139;28;19962;-64
2023/10/03 01:52:59;;;;;;;;;;;;;;;17.06;39.94;100108.84;5076128;28;20003;-64
2023/10/03 01:55:24;;;;;;;;;;;;;;;17.06;39.77;100099.88;5075245;28;20445;-63
2023/10/03 01:57:50;;;;;;;;;;;;;;;17.06;39.92;100094.47;5076503;28;19940;-64
2023/10/03 02:00:25;;;;;;;;;;;;;;;17.05;39.72;100096.34;5076262;28;19919;-65
2023/10/03 02:02:56;;;;;;;;;;;;;;;17.02;39.75;100092.22;5076281;28;19916;-65
2023/10/03 02:05:23;;;;;;;;;;;;;;;17.01;39.73;100090.59;5076166;28;19918;-65
2023/10/03 02:07:49;;;;;;;;;;;;;;;16.99;39.86;100092.72;5075879;28;19940;-65
2023/10/03 02:10:14;;;;;;;;;;;;;;;16.99;39.60;100097.31;5076381;28;20369;-65
2023/10/03 02:12:48;;;;;;;;;;;;;;;17.01;39.98;100093.31;5075735;28;19912;-65
2023/10/03 02:15:15;;;;;;;;;;;;;;;16.99;39.98;100091.88;5075888;28;20555;-64
2023/10/03 02:17:40;;;;;;;;;;;;;;;16.99;40.04;100090.03;5094217;28;20003;-64
2023/10/03 02:20:15;;;;;;;;;;;;;;;16.97;40.02;100088.59;5095992;28;20329;-64
2023/10/03 02:22:41;;;;;;;;;;;;;;;16.95;40.29;100088.03;5095875;28;19919;-64
2023/10/03 02:25:09;;;;;;;;;;;;;;;16.95;40.11;100080.69;5078161;28;19954;-64
2023/10/03 02:27:34;;;;;;;;;;;;;;;16.94;39.88;100076.38;5075444;28;19912;-64
2023/10/03 02:29:59;;;;;;;;;;;;;;;16.95;39.99;100074.47;5075890;28;19923;-64
2023/10/03 02:32:26;;;;;;;;;;;;;;;16.93;40.21;100068.47;5075720;28;19913;-64
2023/10/03 02:34:52;;;;;;;;;;;;;;;16.92;40.20;100072.22;5075277;28;20490;-64
2023/10/03 02:37:17;;;;;;;;;;;;;;;16.93;40.00;100065.75;5075231;28;19944;-64
2023/10/03 02:39:43;;;;;;;;;;;;;;;16.93;40.17;100066.56;5075682;28;20325;-64
2023/10/03 02:42:09;;;;;;;;;;;;;;;16.92;40.27;100056.81;5074523;28;19912;-64
2023/10/03 02:44:36;;;;;;;;;;;;;;;16.94;40.27;100053.84;5075320;28;19916;-64
2023/10/03 02:47:02;;;;;;;;;;;;;;;16.95;40.21;100042.72;5075002;28;19912;-64
2023/10/03 02:49:27;;;;;;;;;;;;;;;16.96;40.08;100032.72;5075154;28;20012;-64
2023/10/03 02:51:53;;;;;;;;;;;;;;;16.97;40.18;100028.91;5075124;28;19923;-64
2023/10/03 02:54:18;;;;;;;;;;;;;;;16.98;40.26;100030.59;5074643;28;19916;-64
2023/10/03 02:56:43;;;;;;;;;;;;;;;16.97;40.25;100020.78;5075131;28;19939;-64
2023/10/03 02:59:08;;;;;;;;;;;;;;;16.97;40.10;100018.06;5074964;28;19913;-64
2023/10/03 03:01:35;;;;;;;;;;;;;;;16.92;40.21;100013.41;5074641;28;20259;-64
2023/10/03 03:04:02;;;;;;;;;;;;;;;16.88;40.09;100006.00;5075074;28;19946;-64
2023/10/03 03:06:28;;;;;;;;;;;;;;;16.87;40.33;100005.19;5075096;28;19916;-64
2023/10/03 03:08:53;;;;;;;;;;;;;;;16.90;40.28;100001.97;5074662;28;20273;-64
2023/10/03 03:11:18;;;;;;;;;;;;;;;16.86;40.58;99989.97;5075364;28;20062;-64
2023/10/03 03:13:43;;;;;;;;;;;;;;;16.81;40.49;99990.69;5074787;28;19974;-64
2023/10/03 03:16:14;;;;;;;;;;;;;;;16.80;40.40;99980.06;5080457;28;19912;-64
2023/10/03 03:18:42;;;;;;;;;;;;;;;16.80;40.07;99986.31;5060234;28;19918;-64
2023/10/03 03:21:14;;;;;;;;;;;;;;;16.82;40.39;99983.34;5095022;28;19916;-64
2023/10/03 03:23:43;;;;;;;;;;;;;;;16.82;40.42;99981.50;5086298;28;20015;-64
2023/10/03 03:26:17;;;;;;;;;;;;;;;16.83;40.27;99979.63;5094931;28;20312;-64
2023/10/03 03:28:46;;;;;;;;;;;;;;;16.81;40.27;99987.97;5094883;28;19920;-64
2023/10/03 03:31:21;;;;;;;;;;;;;;;16.79;40.26;99976.56;5094741;28;20006;-64
2023/10/03 03:33:51;;;;;;;;;;;;;;;16.79;40.39;99973.84;5094717;28;19918;-64
2023/10/03 03:36:21;;;;;;;;;;;;;;;16.80;40.47;99978.19;5087926;28;19913;-64
2023/10/03 03:38:47;;;;;;;;;;;;;;;16.81;40.46;99982.53;5074569;28;19912;-64
2023/10/03 03:41:13;;;;;;;;;;;;;;;16.78;40.53;99977.59;5074500;28;19916;-64
2023/10/03 03:43:39;;;;;;;;;;;;;;;16.73;40.68;99971.28;5073860;28;19912;-64
2023/10/03 03:46:05;;;;;;;;;;;;;;;16.74;40.46;99964.81;5074104;28;19918;-64
2023/10/03 03:48:34;;;;;;;;;;;;;;;16.71;40.88;99959.84;5074065;28;20011;-64
2023/10/03 03:50:59;;;;;;;;;;;;;;;16.68;40.67;99957.63;5072853;28;19974;-63
2023/10/03 03:53:25;;;;;;;;;;;;;;;16.65;40.62;99945.41;5073711;28;19913;-64
2023/10/03 03:55:50;;;;;;;;;;;;;;;16.67;40.90;99945.97;5073271;28;19913;-64
2023/10/03 03:58:18;;;;;;;;;;;;;;;16.65;40.76;99934.56;5073764;28;19912;-64
2023/10/03 04:00:48;;;;;;;;;;;;;;;16.62;40.79;99932.31;5073752;28;19913;-64
2023/10/03 04:03:14;;;;;;;;;;;;;;;16.58;41.04;99929.28;5056787;28;19920;-64
2023/10/03 04:05:39;;;;;;;;;;;;;;;16.58;40.58;99925.75;5053819;28;19913;-64
2023/10/03 04:08:05;;;;;;;;;;;;;;;16.60;40.72;99920.91;5053761;28;19920;-64
2023/10/03 04:10:30;;;;;;;;;;;;;;;16.59;41.05;99919.28;5053850;28;20400;-64
2023/10/03 04:12:56;;;;;;;;;;;;;;;16.61;40.80;99917.16;5053683;28;20344;-64
2023/10/03 04:15:21;;;;;;;;;;;;;;;16.55;41.12;99910.00;5053538;28;19913;-64
2023/10/03 04:17:48;;;;;;;;;;;;;;;16.55;40.88;99908.13;5091609;28;19916;-64
2023/10/03 04:20:20;;;;;;;;;;;;;;;16.52;40.60;99899.66;5077040;28;20373;-64
2023/10/03 04:22:52;;;;;;;;;;;;;;;16.50;40.58;99905.31;5073664;28;19912;-64
2023/10/03 04:25:21;;;;;;;;;;;;;;;16.47;40.78;99905.78;5092327;28;19972;-64
2023/10/03 04:27:51;;;;;;;;;;;;;;;16.44;40.57;99901.69;5093647;28;19916;-64
2023/10/03 04:30:19;;;;;;;;;;;;;;;16.43;40.71;99905.47;5093800;28;19912;-64
2023/10/03 04:32:47;;;;;;;;;;;;;;;16.42;41.17;99903.84;5085120;28;19916;-64
2023/10/03 04:35:13;;;;;;;;;;;;;;;16.45;40.99;99905.22;5073507;28;20422;-64
2023/10/03 04:37:41;;;;;;;;;;;;;;;16.43;40.82;99904.66;5073323;28;19912;-64
2023/10/03 04:40:10;;;;;;;;;;;;;;;16.41;41.05;99898.66;5073417;28;19913;-64
2023/10/03 04:42:38;;;;;;;;;;;;;;;16.37;40.91;99892.91;5073350;28;20350;-64
2023/10/03 04:45:05;;;;;;;;;;;;;;;16.36;40.93;99877.72;5073393;28;19913;-64
2023/10/03 04:47:31;;;;;;;;;;;;;;;16.37;40.84;99879.34;5073382;28;19924;-64
2023/10/03 04:50:00;;;;;;;;;;;;;;;16.40;41.18;99873.47;5073411;28;19912;-64
2023/10/03 04:52:25;;;;;;;;;;;;;;;16.42;41.01;99865.09;5073483;28;19912;-64
2023/10/03 04:54:50;;;;;;;;;;;;;;;16.41;41.02;99858.81;5074294;28;19935;-64
2023/10/03 04:57:15;;;;;;;;;;;;;;;16.42;40.90;99855.06;5093386;28;19949;-64
2023/10/03 04:59:41;;;;;;;;;;;;;;;16.41;41.13;99853.41;5093201;28;19912;-64
2023/10/03 05:02:06;;;;;;;;;;;;;;;16.39;41.21;99846.59;5085127;28;20384;-64
2023/10/03 05:04:31;;;;;;;;;;;;;;;16.38;41.33;99839.53;5072931;28;19938;-64
2023/10/03 05:06:57;;;;;;;;;;;;;;;16.36;41.05;99841.66;5075859;28;19928;-64
2023/10/03 05:09:29;;;;;;;;;;;;;;;16.36;41.29;99852.50;5076894;28;19927;-64
2023/10/03 05:11:55;;;;;;;;;;;;;;;16.32;41.20;99854.06;5077013;28;19912;-64
2023/10/03 05:14:21;;;;;;;;;;;;;;;16.28;41.24;99850.22;5077130;28;19913;-64
2023/10/03 05:16:50;;;;;;;;;;;;;;;16.24;40.89;99847.97;5087602;28;19919;-64
2023/10/03 05:19:15;;;;;;;;;;;;;;;16.27;41.28;99857.53;5097014;28;20019;-64
2023/10/03 05:21:42;;;;;;;;;;;;;;;16.33;41.22;99872.78;5097182;28;19923;-64
2023/10/03 05:24:10;;;;;;;;;;;;;;;16.36;41.30;99866.91;5069580;28;19916;-64
2023/10/03 05:26:36;;;;;;;;;;;;;;;16.39;41.54;99860.97;5076471;28;19920;-64
2023/10/03 05:29:02;;;;;;;;;;;;;;;16.44;41.41;99833.13;5076904;28;19919;-64
2023/10/03 05:31:28;;;;;;;;;;;;;;;16.48;41.48;99830.75;5076931;28;20033;-64
2023/10/03 05:33:53;;;;;;;;;;;;;;;16.52;41.45;99830.00;5076770;28;19912;-64
2023/10/03 05:36:18;;;;;;;;;;;;;;;16.54;41.21;99833.25;5076670;28;19916;-64
2023/10/03 05:38:44;;;;;;;;;;;;;;;16.55;41.23;99834.09;5076729;28;20001;-64
2023/10/03 05:41:20;;;;;;;;;;;;;;;16.53;41.39;99830.81;5076785;28;19912;-64
2023/10/03 05:43:45;;;;;;;;;;;;;;;16.52;41.32;99819.16;5076608;28;19962;-64
2023/10/03 05:46:11;;;;;;;;;;;;;;;16.53;41.37;99814.53;5076413;28;19912;-64
2023/10/03 05:48:36;;;;;;;;;;;;;;;16.53;41.21;99809.97;5076261;28;19917;-64
2023/10/03 05:51:01;;;;;;;;;;;;;;;16.57;41.11;99791.31;5076081;28;19978;-64
2023/10/03 05:53:27;;;;;;;;;;;;;;;16.58;41.09;99782.09;5076384;28;20353;-64
2023/10/03 05:55:52;;;;;;;;;;;;;;;16.63;41.21;99771.31;5075709;28;19920;-64
2023/10/03 05:58:17;;;;;;;;;;;;;;;16.65;41.24;99778.13;5076298;28;20331;-64
2023/10/03 06:00:42;;;;;;;;;;;;;;;16.69;41.29;99770.31;5076144;28;19913;-64
2023/10/03 06:03:09;;;;;;;;;;;;;;;16.72;41.25;99764.38;5075828;28;19935;-64
2023/10/03 06:05:34;;;;;;;;;;;;;;;16.72;41.02;99753.53;5076294;28;19923;-64
2023/10/03 06:08:00;;;;;;;;;;;;;;;16.76;41.10;99751.97;5075688;28;19921;-65
2023/10/03 06:10:25;;;;;;;;;;;;;;;16.79;41.17;99756.06;5076070;28;19912;-65
2023/10/03 06:12:53;;;;;;;;;;;;;;;16.83;41.13;99752.63;5093611;28;19962;-65
2023/10/03 06:15:18;;;;;;;;;;;;;;;16.87;41.20;99750.22;5096317;28;20002;-65
2023/10/03 06:17:43;;;;;;;;;;;;;;;16.87;41.03;99757.56;5059320;28;19995;-64
2023/10/03 06:20:15;;;;;;;;;;;;;;;16.84;41.38;99748.03;5057847;28;19912;-63
2023/10/03 06:22:40;;;;;;;;;;;;;;;16.83;41.18;99754.53;5075824;28;19943;-63
2023/10/03 06:25:07;;;;;;;;;;;;;;;16.82;41.36;99759.13;5085973;28;19960;-63
2023/10/03 06:27:32;;;;;;;;;;;;;;;16.85;41.17;99784.13;5075591;28;19917;-64
2023/10/03 06:29:58;;;;;;;;;;;;;;;16.87;41.24;99787.38;5075787;28;19958;-64
2023/10/03 06:32:23;;;;;;;;;;;;;;;16.90;41.29;99785.00;5075624;28;20285;-65
2023/10/03 06:34:48;;;;;;;;;;;;;;;16.92;41.50;99782.00;5075426;28;19951;-64
2023/10/03 06:37:14;;;;;;;;;;;;;;;16.95;41.11;99798.59;5075467;28;19940;-64
2023/10/03 06:39:41;;;;;;;;;;;;;;;16.98;41.02;99794.59;5075524;28;20000;-64
2023/10/03 06:42:07;;;;;;;;;;;;;;;17.02;41.22;99793.00;5075288;28;19912;-64
2023/10/03 06:44:33;;;;;;;;;;;;;;;17.03;41.16;99790.03;5075414;28;19912;-64
2023/10/03 06:46:58;;;;;;;;;;;;;;;17.06;41.07;99794.13;5075055;28;20314;-63
2023/10/03 06:49:23;;;;;;;;;;;;;;;17.08;41.07;99788.44;5075076;28;19979;-63
2023/10/03 06:51:50;;;;;;;;;;;;;;;17.12;41.06;99776.00;5074938;28;19916;-64
2023/10/03 06:54:16;;;;;;;;;;;;;;;17.13;41.08;99775.75;5065859;28;19920;-62
2023/10/03 06:56:41;;;;;;;;;;;;;;;17.18;40.92;99770.41;5052803;28;20392;-63
2023/10/03 06:59:13;;;;;;;;;;;;;;;17.23;40.94;99766.91;5069784;28;19916;-63
2023/10/03 07:01:38;;;;;;;;;;;;;;;17.29;40.98;99755.06;5070860;28;19913;-63
2023/10/03 07:04:06;;;;;;;;;;;;;;;17.30;41.04;99764.00;5055383;28;20039;-63
2023/10/03 07:06:33;;;;;;;;;;;;;;;17.31;40.83;99757.50;5055109;28;20007;-62
2023/10/03 07:08:58;;;;;;;;;;;;;;;17.28;41.08;99744.44;5061079;28;19925;-62
2023/10/03 07:11:23;;;;;;;;;;;;;;;17.31;40.75;99743.91;5055126;28;19913;-62
2023/10/03 07:13:49;;;;;;;;;;;;;;;17.39;40.93;99748.91;5054762;28;20396;-63
2023/10/03 07:16:16;;;;;;;;;;;;;;;17.48;41.13;99749.28;5067030;28;19912;-60
2023/10/03 07:18:43;;;;;;;;;;;;;;;17.55;41.01;99737.13;5095259;28;19912;-62
2023/10/03 07:21:09;;;;;;;;;;;;;;;17.65;40.99;99743.72;5089346;28;19950;-62
2023/10/03 07:23:34;;;;;;;;;;;;;;;17.74;40.67;99744.88;5078317;28;19940;-62
2023/10/03 07:25:59;;;;;;;;;;;;;;;17.85;40.76;99735.78;5094271;28;20425;-62
2023/10/03 07:28:25;;;;;;;;;;;;;;;17.88;40.75;99728.97;5093665;28;19957;-62
2023/10/03 07:30:50;;;;;;;;;;;;;;;17.90;40.70;99727.63;5094545;28;19916;-62
2023/10/03 07:33:15;;;;;;;;;;;;;;;17.93;40.82;99721.69;5076597;28;19917;-61
2023/10/03 07:35:43;;;;;;;;;;;;;;;17.98;40.62;99712.78;5074184;28;20353;-62
2023/10/03 07:38:12;;;;;;;;;;;;;;;18.02;40.73;99713.06;5074533;28;20034;-62
2023/10/03 07:40:38;;;;;;;;;;;;;;;18.09;40.68;99716.34;5074284;28;19916;-62
2023/10/03 07:43:09;;;;;;;;;;;;;;;18.14;40.60;99708.25;5074212;28;19935;-62
2023/10/03 07:45:36;;;;;;;;;;;;;;;18.21;40.53;99710.75;5073967;28;20017;-62
2023/10/03 07:48:04;;;;;;;;;;;;;;;18.30;40.58;99715.41;5073970;28;20357;-61
2023/10/03 07:50:31;;;;;;;;;;;;;;;18.28;40.57;99716.75;5073745;28;19947;-62
2023/10/03 07:52:57;;;;;;;;;;;;;;;18.28;40.60;99712.13;5073920;28;19916;-62
2023/10/03 07:55:25;;;;;;;;;;;;;;;18.35;40.78;99706.47;5079244;28;20257;-61
2023/10/03 07:57:54;;;;;;;;;;;;;;;18.42;40.65;99700.78;5094432;28;20326;-62
2023/10/03 08:00:20;;;;;;;;;;;;;;;18.49;40.42;99693.22;5094452;28;20470;-62
2023/10/03 08:02:46;;;;;;;;;;;;;;;18.56;40.35;99699.22;5080387;28;19913;-62
2023/10/03 08:05:12;;;;;;;;;;;;;;;18.58;40.46;99694.34;5074135;28;20361;-61
2023/10/03 08:07:38;;;;;;;;;;;;;;;18.64;40.32;99696.00;5073713;28;20404;-62
2023/10/03 08:10:04;;;;;;;;;;;;;;;18.75;40.11;99702.28;5073577;28;20404;-62
2023/10/03 08:12:32;;;;;;;;;;;;;;;18.84;40.06;99697.19;5073793;28;19962;-61
2023/10/03 08:14:57;;;;;;;;;;;;;;;18.93;40.26;99698.31;5073824;28;19920;-60
2023/10/03 08:17:31;;;;;;;;;;;;;;;18.99;40.13;99699.13;5083937;28;19913;-61
2023/10/03 08:19:56;;;;;;;;;;;;;;;19.09;40.02;99696.41;5073650;28;19912;-62
2023/10/03 08:22:21;;;;;;;;;;;;;;;19.13;39.97;99692.91;5073520;28;20429;-62
2023/10/03 08:24:47;;;;;;;;;;;;;;;19.21;39.89;99698.91;5088183;28;19920;-62
2023/10/03 08:27:19;;;;;;;;;;;;;;;19.26;40.04;99705.19;5093875;28;20022;-62
2023/10/03 08:29:51;;;;;;;;;;;;;;;19.32;39.68;99695.13;5073428;28;19999;-62
2023/10/03 08:32:19;;;;;;;;;;;;;;;19.38;40.04;99696.75;5073479;28;19912;-62
2023/10/03 08:34:45;;;;;;;;;;;;;;;19.44;39.77;99690.22;5073266;28;19956;-62
2023/10/03 08:37:21;;;;;;;;;;;;;;;19.49;39.72;99690.22;5073257;28;19956;-62
2023/10/03 08:39:48;;;;;;;;;;;;;;;19.54;39.62;99682.06;5073238;28;20365;-62
2023/10/03 08:42:17;;;;;;;;;;;;;;;19.59;39.38;99677.69;5073164;28;19916;-62
2023/10/03 08:44:51;;;;;;;;;;;;;;;19.66;39.85;99668.16;5073583;28;19912;-62
2023/10/03 08:47:28;;;;;;;;;;;;;;;19.76;39.84;99674.72;5073594;28;19916;-62
2023/10/03 08:49:56;;;;;;;;;;;;;;;19.82;39.62;99669.00;5073804;28;19959;-63
2023/10/03 08:52:39;;;;;;;;;;;;;;;19.84;39.29;99660.56;5073492;28;19991;-62
2023/10/03 08:55:06;;;;;;;;;;;;;;;19.88;39.75;99657.00;5076502;28;19919;-62
2023/10/03 08:57:32;;;;;;;;;;;;;;;19.98;39.91;99653.41;5093382;28;19912;-62
2023/10/03 08:59:59;;;;;;;;;;;;;;;20.15;39.26;99652.28;5089271;28;19985;-60
2023/10/03 09:02:26;;;;;;;;;;;;;;;20.30;39.07;99646.81;5062786;28;19913;-62
2023/10/03 09:04:52;;;;;;;;;;;;;;;20.42;39.38;99636.38;5053236;28;20212;-62
2023/10/03 09:07:17;;;;;;;;;;;;;;;20.56;38.45;99628.41;5052997;28;19935;-61
2023/10/03 09:09:43;;;;;;;;;;;;;;;20.74;38.62;99629.69;5052952;28;19925;-61
2023/10/03 09:12:08;;;;;;;;;;;;;;;20.90;38.39;99627.69;5053304;28;19913;-61
2023/10/03 09:14:36;;;;;;;;;;;;;;;21.07;37.94;99625.38;5065981;28;20257;-61
2023/10/03 09:17:05;;;;;;;;;;;;;;;21.19;38.06;99625.03;5085619;28;19919;-61
2023/10/03 09:19:45;;;;;;;;;;;;;;;21.30;37.97;99631.22;5093359;28;20037;-62
2023/10/03 09:22:15;;;;;;;;;;;;;;;21.37;37.73;99623.50;5093227;28;19912;-61
2023/10/03 09:24:44;;;;;;;;;;;;;;;21.42;37.38;99622.66;5079164;28;20285;-62
2023/10/03 09:27:17;;;;;;;;;;;;;;;21.49;37.51;99619.63;5073023;28;19917;-62
2023/10/03 09:29:43;;;;;;;;;;;;;;;21.52;37.36;99606.19;5072870;28;20357;-61
2023/10/03 09:32:20;;;;;;;;;;;;;;;21.59;37.24;99605.88;5073258;28;19919;-60
2023/10/03 09:34:56;;;;;;;;;;;;;;;21.64;37.30;99595.72;5073448;28;19924;-62
2023/10/03 09:37:28;;;;;;;;;;;;;;;21.66;36.80;99595.44;5072765;28;20387;-62
2023/10/03 09:39:57;;;;;;;;;;;;;;;21.67;36.56;99594.31;5072784;28;19913;-62
2023/10/03 09:42:24;;;;;;;;;;;;;;;21.63;36.13;99588.59;5072561;28;19913;-62
2023/10/03 09:44:51;;;;;;;;;;;;;;;21.67;36.32;99586.13;5072431;28;19924;-62
2023/10/03 09:47:27;;;;;;;;;;;;;;;21.78;36.63;99582.16;5072225;28;19916;-62
2023/10/03 09:50:02;;;;;;;;;;;;;;;22.07;36.57;99581.31;5072774;28;20372;-62
2023/10/03 09:52:30;;;;;;;;;;;;;;;22.30;37.06;99584.34;5074720;28;19924;-62
2023/10/03 09:54:59;;;;;;;;;;;;;;;22.47;36.86;99581.91;5078057;28;20330;-62
2023/10/03 09:57:28;;;;;;;;;;;;;;;22.52;35.68;99583.78;5077307;28;19920;-62
2023/10/03 09:59:54;;;;;;;;;;;;;;;22.65;35.88;99582.22;5056138;28;19919;-62
2023/10/03 10:02:30;;;;;;;;;;;;;;;22.82;35.85;99574.28;5056070;28;20003;-62
2023/10/03 10:04:59;;;;;;;;;;;;;;;22.76;34.33;99562.63;5056403;28;19917;-62
2023/10/03 10:07:50;;;;;;;;;;;;;;;22.85;35.79;99557.28;5056124;28;20289;-62
2023/10/03 10:10:19;;;;;;;;;;;;;;;22.93;35.41;99556.59;5064887;28;19924;-61
2023/10/03 10:13:04;;;;;;;;;;;;;;;22.98;34.72;99550.25;5076388;28;19912;-62
2023/10/03 10:15:31;;;;;;;;;;;;;;;22.97;35.01;99551.34;5076043;28;20007;-62
2023/10/03 10:17:56;;;;;;;;;;;;;;;23.05;34.57;99539.75;5096320;28;20364;-62
2023/10/03 10:20:27;;;;;;;;;;;;;;;23.08;34.30;99538.31;5091829;28;19919;-62
2023/10/03 10:23:03;;;;;;;;;;;;;;;23.04;34.27;99534.56;5076214;28;20329;-62
2023/10/03 10:25:30;;;;;;;;;;;;;;;23.11;34.56;99541.28;5055864;28;19923;-62
2023/10/03 10:28:00;;;;;;;;;;;;;;;23.11;34.26;99535.81;5055737;28;20358;-63
2023/10/03 10:30:26;;;;;;;;;;;;;;;23.12;34.27;99529.22;5055911;28;19913;-62
2023/10/03 10:33:11;;;;;;;;;;;;;;;23.02;34.31;99532.09;5066278;28;19934;-62
2023/10/03 10:36:12;;;;;;;;;;;;;;;22.98;33.75;99534.63;5064436;28;20020;-62
2023/10/03 10:38:38;;;;;;;;;;;;;;;23.17;35.33;99518.16;5065014;28;19953;-62
2023/10/03 10:41:22;;;;;;;;;;;;;;;23.24;34.44;99522.44;5075730;28;19919;-63
2023/10/03 10:44:06;;;;;;;;;;;;;;;23.16;34.33;99515.72;5041218;28;20007;-63
2023/10/03 10:46:36;;;;;;;;;;;;;;;23.15;33.47;99514.91;5075691;28;19999;-63
2023/10/03 10:49:06;;;;;;;;;;;;;;;23.19;35.15;99515.94;5075431;28;19912;-62
2023/10/03 10:51:32;;;;;;;;;;;;;;;23.32;33.73;99508.03;5075233;28;20349;-62
2023/10/03 10:53:57;;;;;;;;;;;;;;;23.49;33.92;99505.50;5057131;28;19972;-62
2023/10/03 10:56:25;;;;;;;;;;;;;;;23.49;33.71;99510.19;5089846;28;20380;-61
2023/10/03 10:58:53;;;;;;;;;;;;;;;23.56;34.05;99505.13;5095522;28;20257;-61
2023/10/03 11:01:19;;;;;;;;;;;;;;;23.58;34.13;99500.94;5094071;28;19912;-62
2023/10/03 11:03:45;;;;;;;;;;;;;;;23.77;33.43;99500.03;5074338;28;19913;-62
2023/10/03 11:06:14;;;;;;;;;;;;;;;23.92;34.00;99505.25;5065954;28;20042;-62
2023/10/03 11:08:47;;;;;;;;;;;;;;;23.95;32.98;99499.16;5054886;28;19921;-62
2023/10/03 11:11:13;;;;;;;;;;;;;;;24.01;33.04;99493.56;5055102;28;19948;-62
2023/10/03 11:13:46;;;;;;;;;;;;;;;24.09;34.00;99490.06;5055258;28;19913;-62
2023/10/03 11:16:11;;;;;;;;;;;;;;;24.31;33.69;99490.16;5065667;28;20276;-62
2023/10/03 11:18:37;;;;;;;;;;;;;;;24.42;33.62;99484.41;5074899;28;19913;-62
2023/10/03 11:21:03;;;;;;;;;;;;;;;24.54;35.12;99481.97;5074732;28;19912;-62
2023/10/03 11:23:28;;;;;;;;;;;;;;;24.69;33.56;99480.78;5078329;28;19919;-62
2023/10/03 11:25:57;;;;;;;;;;;;;;;24.89;34.05;99473.97;5095215;28;19912;-62
2023/10/03 11:28:23;;;;;;;;;;;;;;;25.01;32.76;99476.13;5090114;28;19916;-61
2023/10/03 11:30:58;;;;;;;;;;;;;;;25.15;32.01;99457.63;5074796;28;20402;-62
2023/10/03 11:33:24;;;;;;;;;;;;;;;25.15;31.85;99457.63;5074865;28;19944;-62
2023/10/03 11:35:53;;;;;;;;;;;;;;;25.26;32.90;99449.97;5074403;28;19959;-63
2023/10/03 11:38:18;;;;;;;;;;;;;;;25.35;30.76;99450.78;5074363;28;19916;-62
2023/10/03 11:40:44;;;;;;;;;;;;;;;25.48;31.85;99443.56;5074680;28;19920;-62
2023/10/03 11:43:10;;;;;;;;;;;;;;;25.55;33.11;99440.34;5074197;28;19912;-62
2023/10/03 11:45:36;;;;;;;;;;;;;;;25.62;29.32;99438.75;5074120;28;20014;-64
2023/10/03 11:48:01;;;;;;;;;;;;;;;25.56;31.28;99439.25;5074302;28;19917;-63
2023/10/03 11:50:27;;;;;;;;;;;;;;;25.75;29.83;99436.22;5074379;28;20339;-63
2023/10/03 11:52:59;;;;;;;;;;;;;;;25.94;31.18;99428.47;5074259;28;20421;-63
2023/10/03 11:55:28;;;;;;;;;;;;;;;26.11;30.37;99424.13;5073636;28;19955;-63
2023/10/03 11:57:55;;;;;;;;;;;;;;;26.24;30.26;99425.91;5074140;28;19996;-64
2023/10/03 12:00:24;;;;;;;;;;;;;;;26.39;28.74;99422.69;5074207;28;19924;-63
2023/10/03 12:02:50;;;;;;;;;;;;;;;26.61;29.76;99418.94;5073623;28;19912;-64
2023/10/03 12:05:16;;;;;;;;;;;;;;;26.71;29.60;99406.78;5073903;28;19966;-62
2023/10/03 12:07:45;;;;;;;;;;;;;;;26.91;29.16;99404.44;5055631;28;20316;-63
2023/10/03 12:10:12;;;;;;;;;;;;;;;27.00;29.96;99400.53;5073799;28;19916;-63
2023/10/03 12:12:38;;;;;;;;;;;;;;;27.21;29.53;99397.84;5073613;28;19916;-63
2023/10/03 12:15:07;;;;;;;;;;;;;;;27.36;31.45;99393.75;5073402;28;20038;-63
2023/10/03 12:17:33;;;;;;;;;;;;;;;27.48;31.33;99382.00;5073595;28;20262;-62
2023/10/03 12:19:58;;;;;;;;;;;;;;;27.52;28.77;99377.44;5074013;28;20010;-62
2023/10/03 12:22:23;;;;;;;;;;;;;;;27.57;30.22;99385.53;5073772;28;20047;-62
2023/10/03 12:24:48;;;;;;;;;;;;;;;27.46;28.51;99376.03;5082581;28;19919;-62
2023/10/03 12:27:15;;;;;;;;;;;;;;;27.30;27.48;99374.97;5073356;28;20386;-63
2023/10/03 12:29:41;;;;;;;;;;;;;;;27.14;27.79;99381.03;5074017;28;19917;-63
2023/10/03 12:32:07;;;;;;;;;;;;;;;27.02;27.60;99381.72;5073841;28;19912;-63
2023/10/03 12:34:32;;;;;;;;;;;;;;;26.88;28.94;99372.88;5073744;28;20011;-63
2023/10/03 12:36:58;;;;;;;;;;;;;;;26.85;28.52;99368.00;5073393;28;19916;-63
2023/10/03 12:39:25;;;;;;;;;;;;;;;26.79;28.27;99364.63;5073206;28;19920;-64
2023/10/03 12:41:50;;;;;;;;;;;;;;;26.75;29.79;99363.66;5073142;28;19939;-64
2023/10/03 12:44:17;;;;;;;;;;;;;;;26.72;27.45;99364.31;5073483;28;19916;-63
2023/10/03 12:46:42;;;;;;;;;;;;;;;26.82;28.47;99352.94;5072981;28;20377;-63